createdAt,value
2022-12-25T00:01:12.789Z,100432.58
2022-12-25T00:03:47.391Z,100434.18
2022-12-25T00:06:16.701Z,100434.38
2022-12-25T00:08:44.025Z,100436.13
2022-12-25T00:11:13.532Z,100438.74
2022-12-25T00:13:41.252Z,100443.92
2022-12-25T00:16:12.169Z,100452.42
2022-12-25T00:18:38.967Z,100454.61
2022-12-25T00:21:08.240Z,100455.31
2022-12-25T00:23:35.333Z,100459.00
2022-12-25T00:26:08.825Z,100458.38
2022-12-25T00:28:36.382Z,100462.55
2022-12-25T00:31:11.911Z,100468.83
2022-12-25T00:33:40.844Z,100475.27
2022-12-25T00:38:53.557Z,100473.48
2022-12-25T00:41:41.824Z,100474.73
2022-12-25T00:44:11.922Z,100472.73
2022-12-25T00:46:39.847Z,100473.52
2022-12-25T00:49:06.734Z,100477.28
2022-12-25T00:51:33.567Z,100483.30
2022-12-25T00:54:00.753Z,100492.29
2022-12-25T00:56:28.291Z,100492.37
2022-12-25T00:58:55.597Z,100489.83
2022-12-25T01:01:22.600Z,100493.80
2022-12-25T01:03:52.012Z,100486.50
2022-12-25T01:06:18.892Z,100480.67
2022-12-25T01:09:04.124Z,100479.65
2022-12-25T01:11:31.666Z,100482.77
2022-12-25T01:13:58.934Z,100483.13
2022-12-25T01:16:26.324Z,100484.81
2022-12-25T01:18:53.624Z,100473.48
2022-12-25T01:21:21.686Z,100468.10
2022-12-25T01:23:50.540Z,100472.21
2022-12-25T01:26:19.811Z,100477.23
2022-12-25T01:28:46.873Z,100484.83
2022-12-25T01:31:16.156Z,100490.33
2022-12-25T01:33:43.949Z,100496.80
2022-12-25T01:36:23.796Z,100498.89
2022-12-25T01:38:51.827Z,100500.23
2022-12-25T01:41:22.281Z,100503.15
2022-12-25T01:44:02.721Z,100503.60
2022-12-25T01:46:31.025Z,100502.69
2022-12-25T01:49:02.805Z,100508.86
2022-12-25T01:51:39.619Z,100516.03
2022-12-25T01:54:12.053Z,100517.60
2022-12-25T01:56:44.190Z,100513.09
2022-12-25T01:59:15.892Z,100506.86
2022-12-25T02:01:43.151Z,100506.14
2022-12-25T02:04:21.679Z,100499.20
2022-12-25T02:06:51.861Z,100502.59
2022-12-25T02:09:18.669Z,100502.54
2022-12-25T02:11:58.413Z,100505.09
2022-12-25T02:14:30.408Z,100500.23
2022-12-25T02:17:25.854Z,100497.98
2022-12-25T02:20:27.547Z,100494.90
2022-12-25T02:23:23.207Z,100501.05
2022-12-25T02:26:07.409Z,100503.82
2022-12-25T02:28:45.394Z,100500.81
2022-12-25T02:31:17.927Z,100504.22
2022-12-25T02:34:11.292Z,100508.39
2022-12-25T02:37:02.448Z,100503.77
2022-12-25T02:40:19.687Z,100509.91
2022-12-25T02:43:33.930Z,100509.27
2022-12-25T02:46:26.760Z,100514.58
2022-12-25T02:49:20.921Z,100520.73
2022-12-25T02:52:29.661Z,100518.98
2022-12-25T02:55:50.064Z,100520.75
2022-12-25T02:58:42.637Z,100517.09
2022-12-25T03:01:34.787Z,100520.73
2022-12-25T03:04:25.026Z,100526.56
2022-12-25T03:07:01.585Z,100529.40
2022-12-25T03:09:53.992Z,100536.03
2022-12-25T03:12:46.730Z,100539.95
2022-12-25T03:15:32.106Z,100543.52
2022-12-25T03:18:03.023Z,100547.57
2022-12-25T03:20:50.265Z,100549.58
2022-12-25T03:23:43.443Z,100549.36
2022-12-25T03:26:28.911Z,100551.36
2022-12-25T03:28:58.188Z,100552.45
2022-12-25T03:31:56.536Z,100553.29
2022-12-25T03:34:58.552Z,100559.14
2022-12-25T03:38:09.080Z,100577.50
2022-12-25T03:41:23.145Z,100585.83
2022-12-25T03:44:39.085Z,100595.54
2022-12-25T03:47:33.915Z,100595.78
2022-12-25T03:50:36.915Z,100595.79
2022-12-25T03:53:44.378Z,100585.22
2022-12-25T03:56:34.230Z,100580.70
2022-12-25T03:59:24.116Z,100582.27
2022-12-25T04:02:10.642Z,100587.72
2022-12-25T04:04:56.605Z,100597.61
2022-12-25T04:07:41.988Z,100600.52
2022-12-25T04:10:28.510Z,100590.90
2022-12-25T04:13:14.181Z,100591.57
2022-12-25T04:15:59.635Z,100602.55
2022-12-25T04:18:45.205Z,100609.58
2022-12-25T04:21:33.062Z,100606.61
2022-12-25T04:24:23.767Z,100593.15
2022-12-25T04:27:11.723Z,100590.64
2022-12-25T04:29:59.181Z,100601.26
2022-12-25T04:32:46.614Z,100602.95
2022-12-25T04:35:32.753Z,100606.55
2022-12-25T04:38:01.014Z,100604.23
2022-12-25T04:40:27.824Z,100603.55
2022-12-25T04:42:54.670Z,100605.24
2022-12-25T04:45:21.581Z,100606.83
2022-12-25T04:47:48.370Z,100608.64
2022-12-25T04:50:15.341Z,100614.22
2022-12-25T04:52:42.512Z,100620.11
2022-12-25T04:55:10.983Z,100621.58
2022-12-25T04:57:40.460Z,100626.58
2022-12-25T05:00:11.066Z,100629.69
2022-12-25T05:02:41.346Z,100623.13
2022-12-25T05:05:10.203Z,100622.35
2022-12-25T05:07:37.306Z,100628.38
2022-12-25T05:10:04.678Z,100625.65
2022-12-25T05:12:31.804Z,100621.02
2022-12-25T05:14:58.996Z,100630.89
2022-12-25T05:17:25.998Z,100643.30
2022-12-25T05:19:52.980Z,100642.13
2022-12-25T05:22:19.959Z,100633.45
2022-12-25T05:24:46.823Z,100638.81
2022-12-25T05:27:14.650Z,100643.28
2022-12-25T05:29:41.844Z,100645.39
2022-12-25T05:32:10.934Z,100653.05
2022-12-25T05:34:39.024Z,100645.14
2022-12-25T05:37:06.675Z,100641.30
2022-12-25T05:39:33.723Z,100643.13
2022-12-25T05:42:08.207Z,100651.14
2022-12-25T05:44:35.251Z,100650.85
2022-12-25T05:47:02.192Z,100646.36
2022-12-25T05:49:29.377Z,100642.21
2022-12-25T05:51:56.576Z,100644.74
2022-12-25T05:54:23.607Z,100640.63
2022-12-25T05:56:50.591Z,100645.45
2022-12-25T05:59:17.655Z,100648.98
2022-12-25T06:01:46.903Z,100658.08
2022-12-25T06:04:16.329Z,100658.52
2022-12-25T06:06:46.450Z,100663.11
2022-12-25T06:09:13.550Z,100661.93
2022-12-25T06:11:41.543Z,100665.84
2022-12-25T06:14:13.771Z,100671.83
2022-12-25T06:16:41.446Z,100673.97
2022-12-25T06:19:08.306Z,100676.98
2022-12-25T06:21:35.263Z,100682.42
2022-12-25T06:24:02.450Z,100681.41
2022-12-25T06:26:29.372Z,100682.52
2022-12-25T06:28:57.582Z,100686.05
2022-12-25T06:31:24.581Z,100698.39
2022-12-25T06:33:51.628Z,100709.24
2022-12-25T06:36:23.552Z,100716.71
2022-12-25T06:38:52.553Z,100723.16
2022-12-25T06:41:22.474Z,100731.40
2022-12-25T06:43:51.150Z,100737.48
2022-12-25T06:46:19.376Z,100742.05
2022-12-25T06:48:52.343Z,100747.08
2022-12-25T06:51:26.989Z,100750.48
2022-12-25T06:53:55.108Z,100758.67
2022-12-25T06:56:25.784Z,100755.65
2022-12-25T06:59:09.471Z,100756.38
2022-12-25T07:01:57.167Z,100757.96
2022-12-25T07:04:38.840Z,100762.69
2022-12-25T07:07:24.430Z,100767.23
2022-12-25T07:09:51.620Z,100766.31
2022-12-25T07:12:22.902Z,100774.98
2022-12-25T07:14:53.003Z,100778.88
2022-12-25T07:17:20.745Z,100781.27
2022-12-25T07:19:47.652Z,100784.58
2022-12-25T07:22:16.124Z,100790.15
2022-12-25T07:24:48.742Z,100796.23
2022-12-25T07:27:21.847Z,100795.00
2022-12-25T07:29:48.754Z,100793.24
2022-12-25T07:32:16.100Z,100793.88
2022-12-25T07:34:43.012Z,100796.20
2022-12-25T07:37:12.824Z,100799.17
2022-12-25T07:39:40.427Z,100798.47
2022-12-25T07:42:07.280Z,100801.56
2022-12-25T07:44:38.502Z,100799.66
2022-12-25T07:47:06.782Z,100801.05
2022-12-25T07:49:36.271Z,100803.02
2022-12-25T07:52:11.093Z,100809.09
2022-12-25T07:54:41.138Z,100814.90
2022-12-25T07:57:08.320Z,100814.56
2022-12-25T07:59:37.582Z,100810.64
2022-12-25T08:02:04.721Z,100813.16
2022-12-25T08:04:34.245Z,100817.73
2022-12-25T08:07:01.187Z,100820.98
2022-12-25T08:09:28.135Z,100819.60
2022-12-25T08:11:55.107Z,100824.48
2022-12-25T08:14:24.133Z,100831.58
2022-12-25T08:16:55.591Z,100840.03
2022-12-25T08:19:22.736Z,100844.69
2022-12-25T08:21:49.696Z,100831.97
2022-12-25T08:24:16.534Z,100825.45
2022-12-25T08:26:45.685Z,100823.98
2022-12-25T08:29:22.368Z,100830.13
2022-12-25T08:31:50.423Z,100843.73
2022-12-25T08:34:19.626Z,100848.33
2022-12-25T08:36:48.466Z,100846.47
2022-12-25T08:39:19.125Z,100842.20
2022-12-25T08:41:50.934Z,100839.73
2022-12-25T08:47:37.893Z,100845.52
2022-12-25T08:50:08.079Z,100847.11
2022-12-25T08:52:38.433Z,100849.30
2022-12-25T08:55:08.180Z,100857.20
2022-12-25T08:57:37.829Z,100851.46
2022-12-25T09:00:10.228Z,100851.34
2022-12-25T09:02:37.784Z,100853.02
2022-12-25T09:05:05.358Z,100851.50
2022-12-25T09:07:32.178Z,100846.26
2022-12-25T09:10:01.238Z,100849.92
2022-12-25T09:12:28.282Z,100857.20
2022-12-25T09:14:54.988Z,100862.91
2022-12-25T09:17:21.727Z,100861.29
2022-12-25T09:19:50.915Z,100859.39
2022-12-25T09:22:20.271Z,100857.88
2022-12-25T09:24:50.909Z,100861.98
2022-12-25T09:27:18.907Z,100858.89
2022-12-25T09:29:49.537Z,100854.46
2022-12-25T09:32:18.584Z,100859.46
2022-12-25T09:34:45.524Z,100860.77
2022-12-25T09:37:16.513Z,100863.58
2022-12-25T09:39:46.326Z,100864.32
2022-12-25T09:42:21.707Z,100864.22
2022-12-25T09:45:02.425Z,100861.36
2022-12-25T09:47:30.616Z,100860.36
2022-12-25T09:50:00.688Z,100857.88
2022-12-25T09:52:39.804Z,100858.63
2022-12-25T09:55:20.443Z,100857.45
2022-12-25T09:57:54.165Z,100854.92
2022-12-25T10:00:23.483Z,100852.29
2022-12-25T10:02:58.527Z,100861.02
2022-12-25T10:05:43.865Z,100863.44
2022-12-25T10:08:40.168Z,100866.39
2022-12-25T10:11:35.100Z,100870.35
2022-12-25T10:14:21.475Z,100870.01
2022-12-25T10:17:10.090Z,100869.70
2022-12-25T10:19:49.014Z,100869.52
2022-12-25T10:22:33.912Z,100871.99
2022-12-25T10:25:08.351Z,100875.83
2022-12-25T10:27:37.572Z,100879.23
2022-12-25T10:30:17.979Z,100875.13
2022-12-25T10:32:46.617Z,100875.55
2022-12-25T10:35:19.653Z,100874.28
2022-12-25T10:37:54.956Z,100874.23
2022-12-25T10:40:40.118Z,100871.88
2022-12-25T10:43:17.276Z,100868.83
2022-12-25T10:45:45.996Z,100864.41
2022-12-25T10:48:32.345Z,100861.95
2022-12-25T10:50:59.308Z,100864.56
2022-12-25T10:53:27.947Z,100860.55
2022-12-25T10:56:00.832Z,100856.20
2022-12-25T10:58:30.186Z,100855.05
2022-12-25T11:01:06.985Z,100853.05
2022-12-25T11:03:37.980Z,100844.45
2022-12-25T11:06:07.215Z,100844.33
2022-12-25T11:08:40.457Z,100841.73
2022-12-25T11:11:21.619Z,100848.02
2022-12-25T11:14:18.136Z,100846.69
2022-12-25T11:16:45.474Z,100847.57
2022-12-25T11:19:25.944Z,100847.42
2022-12-25T11:21:58.514Z,100844.73
2022-12-25T11:24:28.153Z,100846.46
2022-12-25T11:26:58.075Z,100843.13
2022-12-25T11:29:44.113Z,100837.95
2022-12-25T11:32:23.872Z,100841.96
2022-12-25T11:34:51.166Z,100842.67
2022-12-25T11:37:43.520Z,100844.40
2022-12-25T11:40:54.952Z,100848.09
2022-12-25T11:43:24.450Z,100850.96
2022-12-25T11:45:59.668Z,100852.14
2022-12-25T11:48:35.580Z,100854.98
2022-12-25T11:51:10.060Z,100858.67
2022-12-25T11:53:54.111Z,100859.54
2022-12-25T11:56:28.657Z,100865.42
2022-12-25T11:59:03.104Z,100870.03
2022-12-25T12:01:44.150Z,100876.30
2022-12-25T12:04:40.289Z,100880.06
2022-12-25T12:07:21.357Z,100880.94
2022-12-25T12:10:03.835Z,100880.13
2022-12-25T12:13:05.313Z,100881.54
2022-12-25T12:15:43.593Z,100876.30
2022-12-25T12:18:23.412Z,100869.42
2022-12-25T12:21:08.096Z,100871.90
2022-12-25T12:24:03.983Z,100876.15
2022-12-25T12:26:40.159Z,100874.71
2022-12-25T12:29:22.579Z,100877.66
2022-12-25T12:31:53.942Z,100877.66
2022-12-25T12:34:27.834Z,100879.46
2022-12-25T12:37:27.510Z,100877.51
2022-12-25T12:40:18.644Z,100876.05
2022-12-25T12:42:53.524Z,100879.89
2022-12-25T12:45:30.667Z,100881.55
2022-12-25T12:47:58.313Z,100885.77
2022-12-25T12:50:41.697Z,100880.25
2022-12-25T12:53:34.657Z,100880.36
2022-12-25T12:56:47.108Z,100885.38
2022-12-25T12:59:14.064Z,100886.02
2022-12-25T13:02:08.470Z,100887.79
2022-12-25T13:05:06.520Z,100885.33
2022-12-25T13:07:48.844Z,100883.91
2022-12-25T13:10:33.131Z,100885.55
2022-12-25T13:13:26.892Z,100885.05
2022-12-25T13:15:55.559Z,100880.12
2022-12-25T13:18:25.116Z,100878.66
2022-12-25T13:21:01.557Z,100881.85
2022-12-25T13:23:33.545Z,100883.40
2022-12-25T13:26:03.738Z,100885.16
2022-12-25T13:28:33.796Z,100886.02
2022-12-25T13:31:07.558Z,100884.70
2022-12-25T13:33:34.743Z,100883.41
2022-12-25T13:36:01.933Z,100880.71
2022-12-25T13:38:28.796Z,100883.23
2022-12-25T13:41:15.687Z,100881.53
2022-12-25T13:43:47.814Z,100883.48
2022-12-25T13:46:15.365Z,100885.17
2022-12-25T13:48:42.445Z,100890.20
2022-12-25T13:51:16.188Z,100891.20
2022-12-25T13:53:43.710Z,100894.67
2022-12-25T13:56:15.585Z,100897.42
2022-12-25T13:58:49.735Z,100898.48
2022-12-25T14:01:17.893Z,100901.59
2022-12-25T14:03:47.440Z,100910.64
2022-12-25T14:06:27.935Z,100912.55
2022-12-25T14:08:57.691Z,100913.86
2022-12-25T14:11:29.117Z,100918.02
2022-12-25T14:13:59.613Z,100914.25
2022-12-25T14:16:27.212Z,100913.26
2022-12-25T14:18:57.512Z,100912.10
2022-12-25T14:21:55.241Z,100914.47
2022-12-25T14:24:25.883Z,100918.71
2022-12-25T14:27:02.425Z,100918.23
2022-12-25T14:29:42.260Z,100919.88
2022-12-25T14:32:21.412Z,100912.34
2022-12-25T14:34:53.419Z,100908.07
2022-12-25T14:37:24.747Z,100911.64
2022-12-25T14:40:00.404Z,100910.21
2022-12-25T14:42:32.737Z,100920.94
2022-12-25T14:45:04.101Z,100930.10
2022-12-25T14:47:33.121Z,100931.53
2022-12-25T14:49:59.999Z,100930.82
2022-12-25T14:52:41.598Z,100941.20
2022-12-25T14:55:19.259Z,100954.46
2022-12-25T14:58:07.123Z,100959.01
2022-12-25T15:00:37.118Z,100964.14
2022-12-25T15:03:21.004Z,100965.95
2022-12-25T15:05:58.690Z,100966.36
2022-12-25T15:08:25.828Z,100967.94
2022-12-25T15:11:00.393Z,100967.27
2022-12-25T15:13:29.720Z,100974.27
2022-12-25T15:16:13.364Z,100977.90
2022-12-25T15:18:44.195Z,100975.21
2022-12-25T15:21:16.834Z,100974.39
2022-12-25T15:23:43.931Z,100977.06
2022-12-25T15:26:14.735Z,100976.63
2022-12-25T15:28:42.726Z,100971.81
2022-12-25T15:31:30.896Z,100977.23
2022-12-25T15:34:01.353Z,100976.54
2022-12-25T15:36:35.865Z,100972.95
2022-12-25T15:39:03.105Z,100970.46
2022-12-25T15:41:52.984Z,100972.33
2022-12-25T15:44:20.172Z,100977.55
2022-12-25T15:46:47.880Z,100978.20
2022-12-25T15:49:15.942Z,100978.92
2022-12-25T15:51:43.751Z,100978.58
2022-12-25T15:54:10.738Z,100975.02
2022-12-25T15:56:50.504Z,100974.35
2022-12-25T15:59:19.393Z,100978.14
2022-12-25T16:01:52.272Z,100974.98
2022-12-25T16:04:20.796Z,100973.95
2022-12-25T16:06:49.234Z,100982.95
2022-12-25T16:09:17.917Z,100983.58
2022-12-25T16:11:44.875Z,100980.92
2022-12-25T16:14:12.471Z,100982.64
2022-12-25T16:16:39.469Z,100988.80
2022-12-25T16:19:06.812Z,100986.88
2022-12-25T16:21:39.877Z,100987.09
2022-12-25T16:24:06.984Z,100984.58
2022-12-25T16:26:34.717Z,100983.95
2022-12-25T16:29:07.666Z,100978.44
2022-12-25T16:31:36.875Z,100968.39
2022-12-25T16:34:05.627Z,100966.77
2022-12-25T16:36:33.385Z,100961.63
2022-12-25T16:39:00.576Z,100960.02
2022-12-25T16:41:27.477Z,100958.03
2022-12-25T16:43:54.427Z,100955.83
2022-12-25T16:46:22.281Z,100952.18
2022-12-25T16:48:49.222Z,100947.70
2022-12-25T16:51:18.638Z,100953.19
2022-12-25T16:53:46.134Z,100965.33
2022-12-25T16:56:15.950Z,100955.62
2022-12-25T16:58:46.168Z,100951.41
2022-12-25T17:01:15.990Z,100960.41
2022-12-25T17:03:43.202Z,100970.81
2022-12-25T17:06:22.457Z,100975.01
2022-12-25T17:08:51.358Z,100968.71
2022-12-25T17:11:26.725Z,100956.67
2022-12-25T17:13:56.528Z,100951.04
2022-12-25T17:16:26.675Z,100954.23
2022-12-25T17:19:07.384Z,100961.50
2022-12-25T17:21:41.546Z,100967.98
2022-12-25T17:24:09.220Z,100963.14
2022-12-25T17:26:36.240Z,100961.59
2022-12-25T17:29:03.364Z,100963.61
2022-12-25T17:31:30.283Z,100963.32
2022-12-25T17:33:57.247Z,100960.77
2022-12-25T17:36:26.333Z,100964.46
2022-12-25T17:39:05.778Z,100961.20
2022-12-25T17:41:33.224Z,100955.88
2022-12-25T17:44:00.199Z,100957.42
2022-12-25T17:46:29.317Z,100959.08
2022-12-25T17:49:02.069Z,100965.16
2022-12-25T17:51:32.517Z,100973.30
2022-12-25T17:54:18.331Z,100979.12
2022-12-25T17:56:45.193Z,100979.14
2022-12-25T17:59:17.595Z,100974.55
2022-12-25T18:01:46.419Z,100974.31
2022-12-25T18:04:16.064Z,100985.98
2022-12-25T18:06:46.376Z,100988.98
2022-12-25T18:09:13.516Z,100990.45
2022-12-25T18:11:44.683Z,100992.27
2022-12-25T18:14:49.048Z,100985.13
2022-12-25T18:21:09.999Z,100977.04
2022-12-25T18:28:02.532Z,100988.95
2022-12-25T18:30:40.983Z,100995.27
2022-12-25T18:33:12.136Z,100988.70
2022-12-25T18:36:12.707Z,100987.10
2022-12-25T18:36:40.404Z,100978.95
2022-12-25T18:38:38.173Z,100980.55
2022-12-25T18:41:07.461Z,100973.22
2022-12-25T18:43:52.947Z,100970.25
2022-12-25T18:46:27.040Z,100970.55
2022-12-25T18:49:01.403Z,100971.20
2022-12-25T18:51:42.291Z,100967.62
2022-12-25T18:54:12.884Z,100959.81
2022-12-25T18:56:41.533Z,100951.48
2022-12-25T18:59:44.813Z,100950.11
2022-12-25T19:06:33.146Z,100938.58
2022-12-25T19:07:39.048Z,100945.01
2022-12-25T19:09:33.513Z,100935.55
2022-12-25T19:12:04.376Z,100938.95
2022-12-25T19:15:01.549Z,100938.48
2022-12-25T19:17:41.181Z,100935.49
2022-12-25T19:20:41.225Z,100935.23
2022-12-25T19:23:15.788Z,100939.41
2022-12-25T19:25:42.513Z,100948.34
2022-12-25T19:28:09.407Z,100954.59
2022-12-25T19:30:38.019Z,100957.32
2022-12-25T19:33:42.081Z,100960.09
2022-12-25T19:36:40.134Z,100957.23
2022-12-25T19:39:34.678Z,100960.46
2022-12-25T19:42:03.590Z,100964.37
2022-12-25T19:44:35.097Z,100967.56
2022-12-25T19:47:16.922Z,100962.55
2022-12-25T19:49:53.345Z,100964.88
2022-12-25T19:52:21.617Z,100964.88
2022-12-25T19:54:53.028Z,100964.92
2022-12-25T19:57:20.006Z,100965.21
2022-12-25T19:59:49.306Z,100959.27
2022-12-25T20:02:18.581Z,100960.45
2022-12-25T20:07:59.905Z,100959.16
2022-12-25T20:10:29.925Z,100963.95
2022-12-25T20:12:59.187Z,100963.73
2022-12-25T20:15:26.177Z,100967.41
2022-12-25T20:18:53.953Z,100970.09
2022-12-25T20:21:19.551Z,100973.65
2022-12-25T20:23:50.514Z,100971.88
2022-12-25T20:26:18.342Z,100973.15
2022-12-25T20:28:45.659Z,100981.01
2022-12-25T20:31:19.727Z,100981.60
2022-12-25T20:33:48.293Z,100981.09
2022-12-25T20:36:15.676Z,100976.73
2022-12-25T20:38:42.667Z,100975.71
2022-12-25T20:41:37.801Z,100963.27
2022-12-25T20:44:45.025Z,100960.62
2022-12-25T20:47:38.005Z,100953.60
2022-12-25T20:50:19.399Z,100939.89
2022-12-25T20:52:47.290Z,100935.07
2022-12-25T20:55:35.201Z,100932.89
2022-12-25T20:58:04.016Z,100931.52
2022-12-25T21:00:30.724Z,100923.46
2022-12-25T21:03:52.934Z,100926.13
2022-12-25T21:06:31.856Z,100931.15
2022-12-25T21:09:01.542Z,100932.70
2022-12-25T21:11:31.125Z,100939.20
2022-12-25T21:14:05.331Z,100944.61
2022-12-25T21:17:01.887Z,100948.05
2022-12-25T21:19:30.199Z,100953.55
2022-12-25T21:22:08.222Z,100958.57
2022-12-25T21:24:35.021Z,100959.77
2022-12-25T21:27:46.801Z,100955.30
2022-12-25T21:30:22.373Z,100952.89
2022-12-25T21:33:39.351Z,100966.52
2022-12-25T21:36:08.852Z,100954.92
2022-12-25T21:42:30.808Z,100969.66
2022-12-25T21:44:57.800Z,100959.39
2022-12-25T21:47:24.852Z,100961.16
2022-12-25T21:50:45.698Z,100967.33
2022-12-25T21:53:22.465Z,100963.48
2022-12-25T21:56:01.651Z,100961.56
2022-12-25T21:59:01.253Z,100956.65
2022-12-25T22:01:50.564Z,100940.07
2022-12-25T22:04:21.719Z,100926.56
2022-12-25T22:07:37.769Z,100930.48
2022-12-25T22:10:07.404Z,100917.48
2022-12-25T22:17:19.614Z,100924.75
2022-12-25T22:19:55.513Z,100932.00
2022-12-25T22:22:33.121Z,100933.38
2022-12-25T22:28:08.040Z,100932.69
2022-12-25T22:30:52.411Z,100940.94
2022-12-25T22:33:26.167Z,100934.08
2022-12-25T22:40:06.048Z,100926.30
2022-12-25T22:42:57.637Z,100917.57
2022-12-25T22:45:48.663Z,100915.58
2022-12-25T22:48:38.027Z,100910.41
2022-12-25T22:54:47.956Z,100904.79
2022-12-25T22:57:14.883Z,100901.04
2022-12-25T22:59:41.944Z,100903.75
2022-12-25T23:02:13.637Z,100910.23
2022-12-25T23:04:46.300Z,100912.73
2022-12-25T23:07:20.457Z,100918.45
2022-12-25T23:10:06.079Z,100916.05
2022-12-25T23:12:52.620Z,100906.91
2022-12-25T23:15:20.185Z,100906.44
2022-12-25T23:18:05.418Z,100903.29
2022-12-25T23:20:51.303Z,100889.38
2022-12-25T23:23:45.728Z,100878.42
2022-12-25T23:26:20.435Z,100875.23
2022-12-25T23:29:09.583Z,100875.72
2022-12-25T23:32:06.535Z,100877.36
2022-12-25T23:35:17.076Z,100867.39
2022-12-25T23:37:54.774Z,100866.74
2022-12-25T23:40:27.632Z,100871.99
2022-12-25T23:43:31.491Z,100873.62
2022-12-25T23:46:25.775Z,100866.34
2022-12-25T23:49:00.035Z,100862.67
2022-12-25T23:51:46.003Z,100867.11
2022-12-25T23:54:29.916Z,100868.88
2022-12-25T23:56:59.437Z,100874.48
2022-12-25T23:59:30.085Z,100880.45
